Time;durP1;ratioP1;P1;durP2;ratioP2;P2;SDS_P1;SDS_P2;PMS_P1;PMS_P2;Temp;Humidity;BMP_temperature;BMP_pressure;BME280_temperature;BME280_humidity;BME280_pressure;Samples;Min_cycle;Max_cycle;Signal;HPM_P1;HPM_P2
2021/03/02 00:00:10;;;;;;;7.78;5.15;;;;;;;11.71;64.42;100975.44;1746163;81;21214;-66
2021/03/02 00:02:42;;;;;;;8.00;5.17;;;;;;;11.69;64.46;100970.76;1755788;80;21529;-64
2021/03/02 00:05:11;;;;;;;6.47;5.25;;;;;;;11.77;64.32;100965.53;1751752;80;21536;-66
2021/03/02 00:07:39;;;;;;;8.28;5.03;;;;;;;11.79;64.20;100956.08;1747751;80;21214;-65
2021/03/02 00:10:09;;;;;;;7.22;5.28;;;;;;;11.74;64.26;100951.20;1745875;79;21500;-65
2021/03/02 00:12:38;;;;;;;7.10;5.20;;;;;;;11.72;64.30;100942.50;1748204;80;21242;-65
2021/03/02 00:15:08;;;;;;;6.47;4.60;;;;;;;11.69;64.35;100934.83;1763475;80;21146;-66
2021/03/02 00:17:47;;;;;;;7.40;5.12;;;;;;;11.66;64.40;100935.10;1745328;80;21382;-66
2021/03/02 00:20:23;;;;;;;8.23;5.40;;;;;;;11.69;64.40;100932.66;1752238;79;21215;-65
2021/03/02 00:23:13;;;;;;;7.65;5.70;;;;;;;11.78;64.19;100933.95;1753199;81;21163;-65
2021/03/02 00:25:43;;;;;;;7.17;4.87;;;;;;;11.75;64.19;100921.42;1748364;79;21118;-66
2021/03/02 00:28:10;;;;;;;6.37;4.85;;;;;;;11.70;64.29;100918.35;1737453;81;21213;-65
2021/03/02 00:30:38;;;;;;;7.03;4.42;;;;;;;11.65;64.39;100920.13;1743647;79;21393;-65
2021/03/02 00:33:07;;;;;;;5.05;3.87;;;;;;;11.63;64.43;100912.79;1744335;81;21170;-67
2021/03/02 00:35:35;;;;;;;6.83;4.72;;;;;;;11.62;64.46;100907.10;1739962;79;21162;-65
2021/03/02 00:38:03;;;;;;;6.53;4.60;;;;;;;11.69;64.30;100905.55;1739970;81;21174;-65
2021/03/02 00:40:30;;;;;;;5.80;4.15;;;;;;;11.73;64.20;100899.44;1742946;79;21163;-65
2021/03/02 00:42:58;;;;;;;5.83;3.90;;;;;;;11.69;64.24;100894.89;1759356;80;21388;-66
2021/03/02 00:45:25;;;;;;;6.22;4.50;;;;;;;11.67;64.30;100895.53;1756292;80;21285;-66
2021/03/02 00:47:53;;;;;;;5.47;4.50;;;;;;;11.64;64.36;100885.67;1743423;80;21103;-67
2021/03/02 00:50:22;;;;;;;5.53;3.90;;;;;;;11.61;64.36;100875.66;1750389;80;21234;-67
2021/03/02 00:52:50;;;;;;;6.03;4.08;;;;;;;11.60;64.41;100873.14;1756823;80;21121;-66
2021/03/02 00:55:19;;;;;;;7.25;4.08;;;;;;;11.70;64.24;100863.28;1724702;81;21377;-65
2021/03/02 00:57:47;;;;;;;5.60;4.40;;;;;;;11.70;64.14;100860.62;1745124;79;21193;-66
2021/03/02 01:00:18;;;;;;;4.70;3.60;;;;;;;11.65;64.19;100852.26;1756589;80;21185;-65
2021/03/02 01:02:48;;;;;;;5.42;3.87;;;;;;;11.64;64.24;100859.88;1746194;80;21172;-65
2021/03/02 01:05:17;;;;;;;6.08;4.03;;;;;;;11.62;64.28;100849.88;1760665;80;21158;-66
2021/03/02 01:07:44;;;;;;;5.95;4.28;;;;;;;11.59;64.30;100844.88;1753755;79;21780;-66
2021/03/02 01:10:14;;;;;;;5.20;3.80;;;;;;;11.59;64.29;100847.03;1739926;81;21234;-66
2021/03/02 01:12:43;;;;;;;5.33;3.62;;;;;;;11.69;64.09;100846.16;1743280;80;22073;-66
2021/03/02 01:15:14;;;;;;;5.28;4.37;;;;;;;11.68;64.04;100844.46;1739505;81;21123;-65
2021/03/02 01:17:41;;;;;;;4.55;3.87;;;;;;;11.65;64.05;100844.74;1756394;80;21170;-65
2021/03/02 01:20:10;;;;;;;6.30;4.25;;;;;;;11.59;64.11;100833.73;1743148;81;21420;-65
2021/03/02 01:22:39;;;;;;;4.70;3.72;;;;;;;11.58;64.17;100824.05;1759083;80;22158;-68
2021/03/02 01:25:11;;;;;;;5.62;3.60;;;;;;;11.55;64.17;100819.05;1754209;81;21158;-66
2021/03/02 01:27:38;;;;;;;5.40;3.87;;;;;;;11.55;64.19;100812.39;1761155;79;21632;-63
2021/03/02 01:30:09;;;;;;;4.15;3.37;;;;;;;11.65;63.97;100813.66;1750438;80;21198;-64
2021/03/02 01:32:37;;;;;;;4.55;3.40;;;;;;;11.64;63.95;100812.48;1759503;80;21352;-66
2021/03/02 01:35:11;;;;;;;5.28;4.08;;;;;;;11.60;63.99;100795.46;1744096;80;21150;-66
2021/03/02 01:37:38;;;;;;;4.75;3.72;;;;;;;11.56;64.05;100791.42;1743922;80;21166;-65
2021/03/02 01:40:12;;;;;;;5.53;4.10;;;;;;;11.54;64.08;100792.57;1753494;80;21186;-65
2021/03/02 01:42:41;;;;;;;5.25;3.50;;;;;;;11.50;64.12;100788.03;1748762;79;21126;-65
2021/03/02 01:45:11;;;;;;;4.40;3.12;;;;;;;11.52;64.10;100783.40;1745348;81;21379;-67
2021/03/02 01:47:40;;;;;;;4.92;3.27;;;;;;;11.61;63.94;100785.67;1751834;80;21166;-66
2021/03/02 01:50:09;;;;;;;3.80;3.33;;;;;;;11.59;63.93;100777.01;1748780;79;21170;-64
2021/03/02 01:55:40;;;;;;;4.30;3.50;;;;;;;11.56;64.04;100761.33;1860175;76;28738;-65
2021/03/02 01:58:08;;;;;;;5.37;4.17;;;;;;;11.49;64.04;100773.55;1795081;78;21122;-66
2021/03/02 02:00:37;;;;;;;4.78;3.42;;;;;;;11.47;64.08;100767.03;1790461;78;21380;-65
2021/03/02 02:03:29;;;;;;;4.85;3.60;;;;;;;11.46;64.10;100772.53;1781238;79;21187;-66
2021/03/02 02:06:07;;;;;;;4.90;3.70;;;;;;;11.53;63.96;100765.13;1785055;78;21616;-66
2021/03/02 02:08:59;;;;;;;5.08;3.70;;;;;;;11.54;63.90;100756.14;1803798;77;21128;-67
2021/03/02 02:12:16;;;;;;;5.03;3.70;;;;;;;11.49;63.96;100750.45;1806915;78;21603;-66
2021/03/02 02:14:53;;;;;;;4.65;3.42;;;;;;;11.45;64.04;100748.22;1820839;78;21376;-66
2021/03/02 02:17:28;;;;;;;5.47;3.58;;;;;;;11.37;64.18;100751.63;1762660;78;21547;-66
2021/03/02 02:20:00;;;;;;;4.78;3.42;;;;;;;11.33;64.27;100752.41;1800974;78;21157;-65
2021/03/02 02:23:05;;;;;;;4.03;3.25;;;;;;;11.38;64.24;100751.48;1796413;77;21155;-65
2021/03/02 02:25:48;;;;;;;3.95;3.58;;;;;;;11.45;64.04;100750.88;1796464;77;21472;-67
2021/03/02 02:28:16;;;;;;;4.37;3.25;;;;;;;11.40;64.10;100760.15;1811666;78;21504;-65
2021/03/02 02:30:48;;;;;;;4.65;3.72;;;;;;;11.36;64.18;100745.98;1790970;78;21195;-65
2021/03/02 02:33:15;;;;;;;3.95;3.27;;;;;;;11.33;64.22;100747.59;1810499;78;21153;-65
2021/03/02 02:35:44;;;;;;;4.17;2.80;;;;;;;11.30;64.25;100738.56;1804878;78;21144;-65
2021/03/02 02:38:11;;;;;;;4.75;3.20;;;;;;;11.32;64.28;100736.59;1811737;78;21152;-66
2021/03/02 02:40:40;;;;;;;4.40;3.55;;;;;;;11.40;64.06;100738.87;1802980;78;21150;-65
2021/03/02 02:43:08;;;;;;;4.80;3.52;;;;;;;11.43;64.01;100728.91;1821243;78;21117;-66
2021/03/02 02:45:36;;;;;;;3.30;2.95;;;;;;;11.39;64.07;100725.70;1795943;78;21158;-66
2021/03/02 02:48:05;;;;;;;4.95;3.37;;;;;;;11.36;64.14;100729.52;1805557;78;21226;-64
2021/03/02 02:50:33;;;;;;;4.22;2.90;;;;;;;11.35;64.16;100729.66;1795765;78;21190;-65
2021/03/02 02:53:01;;;;;;;4.47;3.35;;;;;;;11.32;64.15;100732.13;1812576;78;21390;-67
2021/03/02 02:55:54;;;;;;;4.20;3.37;;;;;;;11.31;64.19;100726.45;1815020;77;21127;-65
2021/03/02 02:58:27;;;;;;;3.90;3.15;;;;;;;11.43;63.97;100724.92;1801796;77;21635;-65
2021/03/02 03:00:57;;;;;;;5.47;3.20;;;;;;;11.40;63.95;100720.24;1806526;77;21611;-65
2021/03/02 03:03:27;;;;;;;3.45;2.92;;;;;;;11.37;64.01;100723.19;1817676;78;21555;-65
2021/03/02 03:05:58;;;;;;;4.17;3.35;;;;;;;11.33;64.07;100718.33;1814269;78;21617;-65
2021/03/02 03:08:31;;;;;;;4.03;3.20;;;;;;;11.30;64.13;100711.49;1810432;78;21179;-65
2021/03/02 03:11:02;;;;;;;3.87;3.02;;;;;;;11.29;64.16;100707.14;1806842;78;21610;-65
2021/03/02 03:13:34;;;;;;;3.37;2.65;;;;;;;11.31;64.15;100702.52;1802019;78;21150;-66
2021/03/02 03:16:06;;;;;;;3.40;3.00;;;;;;;11.41;63.97;100704.64;1803733;77;21191;-64
2021/03/02 03:18:54;;;;;;;4.33;3.25;;;;;;;11.39;63.97;100713.23;1810411;77;21368;-65
2021/03/02 03:21:21;;;;;;;4.20;3.20;;;;;;;11.36;64.01;100713.55;1799836;78;21139;-66
2021/03/02 03:23:50;;;;;;;3.40;3.02;;;;;;;11.32;64.06;100707.33;1801726;78;21145;-64
2021/03/02 03:26:18;;;;;;;4.22;3.12;;;;;;;11.30;64.12;100710.63;1802595;77;21167;-65
2021/03/02 03:28:46;;;;;;;3.80;3.10;;;;;;;11.29;64.18;100702.33;1805379;77;21158;-64
2021/03/02 03:31:14;;;;;;;4.12;3.27;;;;;;;11.34;64.10;100701.39;1814667;77;21197;-65
2021/03/02 03:33:42;;;;;;;4.53;3.20;;;;;;;11.44;63.86;100696.02;1800147;78;21147;-65
2021/03/02 03:36:10;;;;;;;3.50;3.20;;;;;;;11.40;63.88;100688.81;1814202;78;21197;-64
2021/03/02 03:38:40;;;;;;;4.62;3.45;;;;;;;11.37;63.93;100687.27;1762222;80;21214;-65
2021/03/02 03:41:07;;;;;;;4.37;3.20;;;;;;;11.35;63.97;100688.42;1807810;78;21145;-65
2021/03/02 03:43:37;;;;;;;4.08;3.37;;;;;;;11.32;64.04;100682.05;1822389;78;21373;-65
2021/03/02 03:46:04;;;;;;;4.20;3.80;;;;;;;11.30;64.08;100690.69;1804795;78;21187;-64
2021/03/02 03:48:32;;;;;;;4.47;3.20;;;;;;;11.35;64.03;100691.08;1795365;78;21130;-65
2021/03/02 03:51:00;;;;;;;3.70;3.12;;;;;;;11.45;63.81;100677.72;1785399;78;21147;-64
2021/03/02 03:53:31;;;;;;;4.12;3.33;;;;;;;11.41;63.83;100684.69;1799325;77;21179;-65
2021/03/02 03:55:59;;;;;;;3.30;2.77;;;;;;;11.38;63.86;100689.47;1795377;78;22321;-64
2021/03/02 03:58:29;;;;;;;4.50;4.00;;;;;;;11.35;63.95;100675.12;1807124;78;21135;-65
2021/03/02 04:00:57;;;;;;;4.78;3.37;;;;;;;11.32;64.00;100680.73;1803688;78;21155;-64
2021/03/02 04:03:27;;;;;;;4.37;3.20;;;;;;;11.29;64.02;100669.91;1794887;77;21172;-66
2021/03/02 04:05:55;;;;;;;3.98;3.30;;;;;;;11.36;63.95;100679.47;1781653;78;21162;-65
2021/03/02 04:08:22;;;;;;;3.40;3.10;;;;;;;11.45;63.73;100677.21;1778793;78;21307;-64
2021/03/02 04:10:49;;;;;;;3.70;3.33;;;;;;;11.42;63.74;100674.87;1798526;78;21166;-65
2021/03/02 04:13:17;;;;;;;3.45;2.98;;;;;;;11.39;63.84;100673.83;1797191;78;21132;-64
2021/03/02 04:15:45;;;;;;;3.30;3.00;;;;;;;11.36;63.87;100656.86;1787798;78;21167;-64
2021/03/02 04:18:16;;;;;;;3.77;3.00;;;;;;;11.34;63.95;100662.82;1789964;79;21190;-64
2021/03/02 04:20:44;;;;;;;3.47;2.98;;;;;;;11.31;63.98;100666.59;1779009;78;21329;-64
2021/03/02 04:23:12;;;;;;;4.17;3.12;;;;;;;11.37;63.90;100658.52;1787444;78;21710;-65
2021/03/02 04:25:40;;;;;;;4.22;3.60;;;;;;;11.47;63.66;100657.11;1783440;78;21135;-66
2021/03/02 04:28:07;;;;;;;4.00;3.40;;;;;;;11.43;63.67;100648.59;1787772;79;21195;-67
2021/03/02 04:30:35;;;;;;;4.22;3.17;;;;;;;11.39;63.72;100647.22;1818288;77;21175;-67
2021/03/02 04:33:04;;;;;;;4.55;3.67;;;;;;;11.37;63.83;100650.53;1802789;78;21359;-66
2021/03/02 04:35:32;;;;;;;4.05;3.05;;;;;;;11.34;63.86;100650.34;1801472;78;21167;-65
2021/03/02 04:38:00;;;;;;;3.85;3.45;;;;;;;11.31;63.89;100647.98;1805141;77;21604;-65
2021/03/02 04:40:28;;;;;;;4.03;3.52;;;;;;;11.37;63.84;100652.69;1812434;78;21162;-65
2021/03/02 04:42:55;;;;;;;6.20;4.10;;;;;;;11.46;63.59;100644.31;1814006;78;21133;-65
2021/03/02 04:45:23;;;;;;;5.05;3.30;;;;;;;11.43;63.62;100645.93;1800671;78;21375;-65
2021/03/02 04:47:50;;;;;;;3.98;3.08;;;;;;;11.38;63.69;100641.08;1790068;78;21147;-64
2021/03/02 04:50:18;;;;;;;4.60;3.10;;;;;;;11.35;63.74;100649.34;1784467;78;21122;-65
2021/03/02 04:52:45;;;;;;;3.62;3.05;;;;;;;11.33;63.80;100642.52;1795243;79;21632;-65
2021/03/02 04:55:14;;;;;;;4.03;3.20;;;;;;;11.31;63.85;100644.48;1765798;79;21198;-66
2021/03/02 04:57:42;;;;;;;3.50;2.90;;;;;;;11.32;63.89;100648.80;1773423;80;21348;-66
2021/03/02 05:00:11;;;;;;;5.12;3.47;;;;;;;11.41;63.70;100638.59;1782757;80;21163;-65
2021/03/02 05:02:38;;;;;;;4.37;3.70;;;;;;;11.40;63.67;100645.75;1768794;79;21110;-66
2021/03/02 05:05:08;;;;;;;3.50;3.10;;;;;;;11.37;63.71;100640.72;1797344;79;21621;-65
2021/03/02 05:07:36;;;;;;;4.62;3.42;;;;;;;11.34;63.82;100638.38;1775269;79;21656;-64
2021/03/02 05:10:05;;;;;;;3.67;3.30;;;;;;;11.31;63.85;100628.02;1769503;79;21416;-65
2021/03/02 05:12:32;;;;;;;4.75;3.25;;;;;;;11.30;63.88;100629.50;1797733;79;21134;-65
2021/03/02 05:15:00;;;;;;;3.17;2.70;;;;;;;11.28;63.93;100632.34;1803577;79;21612;-65
2021/03/02 05:17:28;;;;;;;3.70;2.90;;;;;;;11.37;63.78;100634.06;1773492;79;21154;-64
2021/03/02 05:19:56;;;;;;;3.83;3.10;;;;;;;11.39;63.70;100633.42;1804231;78;21155;-66
2021/03/02 05:22:24;;;;;;;3.40;2.83;;;;;;;11.36;63.74;100634.24;1783398;80;21384;-65
2021/03/02 05:24:53;;;;;;;4.12;3.52;;;;;;;11.33;63.80;100644.67;1772966;80;21417;-65
2021/03/02 05:27:20;;;;;;;3.75;3.27;;;;;;;11.31;63.85;100641.33;1775033;79;21126;-66
2021/03/02 05:29:47;;;;;;;4.22;3.27;;;;;;;11.29;63.86;100633.99;1794489;79;21176;-68
2021/03/02 05:32:15;;;;;;;3.65;3.15;;;;;;;11.28;63.93;100635.47;1774140;78;21131;-65
2021/03/02 05:34:43;;;;;;;3.80;3.20;;;;;;;11.36;63.81;100635.57;1764854;78;21798;-66
2021/03/02 05:37:10;;;;;;;3.37;3.08;;;;;;;11.40;63.71;100635.61;1737296;78;21178;-65
2021/03/02 05:39:38;;;;;;;4.15;2.83;;;;;;;11.36;63.75;100630.25;1779635;78;21173;-65
2021/03/02 05:42:07;;;;;;;4.05;3.15;;;;;;;11.34;63.81;100620.26;1766061;78;21176;-65
2021/03/02 05:44:34;;;;;;;3.77;3.00;;;;;;;11.31;63.87;100628.02;1782962;79;21127;-65
2021/03/02 05:47:03;;;;;;;3.85;2.92;;;;;;;11.30;63.91;100620.19;1794910;79;21423;-65
2021/03/02 05:49:31;;;;;;;3.72;3.30;;;;;;;11.28;63.96;100626.16;1787878;79;21247;-65
2021/03/02 05:51:58;;;;;;;4.00;3.30;;;;;;;11.35;63.87;100623.24;1767735;78;21071;-66
2021/03/02 05:54:26;;;;;;;3.30;2.90;;;;;;;11.39;63.76;100623.28;1789248;79;21174;-65
2021/03/02 05:56:53;;;;;;;4.10;3.37;;;;;;;11.37;63.79;100621.27;1793267;78;21469;-64
2021/03/02 05:59:21;;;;;;;3.22;2.90;;;;;;;11.32;63.85;100627.05;1785644;78;21372;-64
2021/03/02 06:01:48;;;;;;;3.85;3.27;;;;;;;11.31;63.89;100632.02;1794275;78;21140;-66
2021/03/02 06:04:17;;;;;;;4.30;3.08;;;;;;;11.29;63.94;100628.67;1765390;78;21147;-67
2021/03/02 06:06:45;;;;;;;3.92;3.08;;;;;;;11.27;63.95;100627.98;1814669;77;21139;-66
2021/03/02 06:09:12;;;;;;;3.15;2.62;;;;;;;11.32;63.95;100619.55;1795579;78;21547;-65
2021/03/02 06:11:41;;;;;;;3.92;3.52;;;;;;;11.39;63.77;100612.13;1781971;79;21747;-65
2021/03/02 06:14:28;;;;;;;3.70;3.20;;;;;;;11.38;63.78;100610.98;1765731;78;21144;-64
2021/03/02 06:16:57;;;;;;;4.40;3.25;;;;;;;11.34;63.84;100608.28;1808154;78;21193;-65
2021/03/02 06:19:43;;;;;;;4.55;3.27;;;;;;;11.30;63.92;100607.75;1817877;78;21197;-66
2021/03/02 06:22:37;;;;;;;3.37;2.77;;;;;;;11.26;63.98;100602.86;1797910;78;21192;-65
2021/03/02 06:25:06;;;;;;;;;;;;;;;11.26;64.03;100609.52;1804365;78;22285;-64
2021/03/02 06:27:33;;;;;;;3.92;3.12;;;;;;;11.34;63.89;100610.44;1813433;78;20278;-65
2021/03/02 06:30:15;;;;;;;3.45;2.98;;;;;;;11.28;64.00;100619.51;1798457;78;21143;-65
2021/03/02 06:32:47;;;;;;;3.70;3.37;;;;;;;11.23;64.08;100609.84;1804080;77;21112;-65
2021/03/02 06:35:37;;;;;;;4.05;3.55;;;;;;;11.24;64.19;100623.46;1800926;78;21199;-65
2021/03/02 06:38:05;;;;;;;4.10;3.33;;;;;;;11.20;64.23;100617.60;1760653;78;22272;-65
2021/03/02 06:40:45;;;;;;;3.98;3.45;;;;;;;11.18;64.30;100615.12;1807303;77;21160;-64
2021/03/02 06:43:34;;;;;;;5.72;4.15;;;;;;;11.26;64.22;100612.17;1802535;77;21152;-64
2021/03/02 06:46:07;;;;;;;4.20;3.80;;;;;;;11.36;63.96;100610.30;1800596;78;21155;-63
2021/03/02 06:48:52;;;;;;;4.47;3.60;;;;;;;11.33;64.04;100613.25;1775088;78;21127;-66
2021/03/02 06:51:31;;;;;;;4.58;3.85;;;;;;;11.29;64.10;100615.88;1776906;78;21446;-65
2021/03/02 06:54:12;;;;;;;4.28;3.85;;;;;;;11.26;64.18;100623.67;1772001;79;21953;-65
2021/03/02 06:56:40;;;;;;;4.97;3.62;;;;;;;11.24;64.23;100622.95;1774018;78;21199;-64
2021/03/02 06:59:18;;;;;;;4.60;3.58;;;;;;;11.24;64.30;100619.47;1786722;79;21163;-64
2021/03/02 07:01:47;;;;;;;4.28;3.65;;;;;;;11.34;64.09;100614.94;1781947;78;21154;-66
2021/03/02 07:04:21;;;;;;;3.92;3.37;;;;;;;11.36;64.03;100622.27;1786542;78;22286;-65
2021/03/02 07:06:54;;;;;;;4.25;3.77;;;;;;;11.32;64.11;100620.41;1780345;78;21131;-65
2021/03/02 07:09:21;;;;;;;4.80;4.30;;;;;;;11.31;64.17;100617.89;1781386;78;21150;-66
2021/03/02 07:11:48;;;;;;;4.58;4.10;;;;;;;11.28;64.23;100614.19;1783477;78;21668;-65
2021/03/02 07:14:15;;;;;;;4.37;3.65;;;;;;;11.27;64.25;100611.20;1788944;78;21206;-68
2021/03/02 07:16:49;;;;;;;4.50;3.60;;;;;;;11.32;64.22;100611.56;1780194;79;21393;-66
2021/03/02 07:19:19;;;;;;;4.12;3.60;;;;;;;11.41;64.00;100614.65;1782215;78;21606;-65
2021/03/02 07:21:55;;;;;;;4.72;4.28;;;;;;;11.39;63.98;100609.48;1784849;78;21159;-65
2021/03/02 07:24:26;;;;;;;4.92;4.22;;;;;;;11.37;64.03;100605.30;1781304;78;21107;-64
2021/03/02 07:26:57;;;;;;;5.17;4.40;;;;;;;11.34;64.12;100617.09;1773763;78;21174;-66
2021/03/02 07:29:24;;;;;;;5.42;3.70;;;;;;;11.33;64.18;100610.09;1786890;78;22342;-64
2021/03/02 07:31:51;;;;;;;5.70;4.95;;;;;;;11.32;64.23;100615.55;1791867;78;21181;-66
2021/03/02 07:34:19;;;;;;;5.12;4.50;;;;;;;11.35;64.19;100611.27;1774138;79;21338;-65
2021/03/02 07:36:46;;;;;;;4.67;4.28;;;;;;;11.45;64.01;100609.86;1775114;78;21616;-65
2021/03/02 07:39:23;;;;;;;4.85;4.35;;;;;;;11.43;64.00;100616.66;1807381;78;21176;-65
2021/03/02 07:41:54;;;;;;;5.60;4.70;;;;;;;11.40;64.05;100597.86;1788214;78;21427;-66
2021/03/02 07:44:21;;;;;;;5.03;4.03;;;;;;;11.39;64.17;100598.01;1795104;78;21287;-66
2021/03/02 07:46:56;;;;;;;6.60;4.90;;;;;;;11.37;64.50;100596.82;1803154;77;21155;-67
2021/03/02 07:49:28;;;;;;;5.65;4.78;;;;;;;11.39;64.64;100586.03;1795037;77;21151;-66
2021/03/02 07:52:12;;;;;;;6.00;5.10;;;;;;;11.49;64.43;100586.81;1795468;77;21168;-63
2021/03/02 07:54:41;;;;;;;6.40;5.50;;;;;;;11.49;64.41;100581.48;1792451;77;21381;-66
2021/03/02 07:57:21;;;;;;;6.67;5.62;;;;;;;11.46;64.42;100582.28;1806979;77;21202;-65
2021/03/02 08:00:20;;;;;;;7.45;5.53;;;;;;;11.43;64.46;100574.09;1811129;77;21591;-64
2021/03/02 08:03:25;;;;;;;6.85;4.92;;;;;;;11.41;64.49;100570.28;1792053;80;22037;-66
2021/03/02 08:06:01;;;;;;;5.95;4.78;;;;;;;11.38;64.52;100567.09;1791094;78;22187;-64
2021/03/02 08:08:30;;;;;;;6.72;5.15;;;;;;;11.44;64.39;100561.14;1804362;77;22276;-65
2021/03/02 08:10:59;;;;;;;6.35;5.22;;;;;;;11.47;64.29;100563.48;1807277;77;21217;-65
2021/03/02 08:13:42;;;;;;;6.62;5.05;;;;;;;11.45;64.31;100565.46;1822519;77;21146;-64
2021/03/02 08:16:15;;;;;;;7.30;5.37;;;;;;;11.44;64.37;100572.29;1776490;78;21124;-64
2021/03/02 08:18:44;;;;;;;7.62;6.00;;;;;;;11.41;64.42;100562.30;1812355;77;21163;-65
2021/03/02 08:21:19;;;;;;;7.20;6.00;;;;;;;11.40;64.47;100560.61;1811450;77;21182;-64
2021/03/02 08:23:59;;;;;;;7.47;5.65;;;;;;;11.44;64.41;100554.49;1818841;77;21638;-63
2021/03/02 08:26:36;;;;;;;7.60;5.53;;;;;;;11.54;64.15;100543.76;1803106;78;21659;-65
2021/03/02 08:29:12;;;;;;;6.35;5.30;;;;;;;11.51;64.19;100551.56;1818132;77;21149;-64
2021/03/02 08:31:44;;;;;;;7.25;5.95;;;;;;;11.47;64.22;100536.88;1789209;78;21995;-66
2021/03/02 08:34:19;;;;;;;8.25;6.15;;;;;;;11.47;64.27;100537.38;1798151;79;22269;-66
2021/03/02 08:36:51;;;;;;;7.08;5.60;;;;;;;11.45;64.31;100552.66;1784815;78;21182;-64
2021/03/02 08:39:20;;;;;;;6.75;5.60;;;;;;;11.45;64.35;100537.52;1787857;78;21195;-64
2021/03/02 08:41:49;;;;;;;8.23;5.83;;;;;;;11.55;64.16;100534.30;1800259;78;21177;-66
2021/03/02 08:44:24;;;;;;;7.37;5.80;;;;;;;11.57;64.08;100537.64;1799451;78;21178;-66
2021/03/02 08:46:57;;;;;;;6.90;5.80;;;;;;;11.55;64.09;100552.92;1778515;79;21350;-64
2021/03/02 08:49:25;;;;;;;8.88;6.37;;;;;;;11.53;64.17;100568.69;1811700;77;21630;-65
2021/03/02 08:52:00;;;;;;;7.75;5.97;;;;;;;11.51;64.20;100556.89;1806223;77;21588;-64
2021/03/02 08:54:27;;;;;;;7.30;6.03;;;;;;;11.50;64.26;100549.88;1814412;77;21187;-66
2021/03/02 08:57:03;;;;;;;7.95;6.53;;;;;;;11.57;64.18;100544.29;1797409;77;21480;-65
2021/03/02 08:59:32;;;;;;;8.25;5.90;;;;;;;11.63;63.89;100540.17;1807859;77;21420;-65
2021/03/02 09:01:59;;;;;;;8.20;6.65;;;;;;;11.66;63.89;100554.98;1798443;77;21153;-65
2021/03/02 09:04:31;;;;;;;8.55;6.08;;;;;;;11.63;63.99;100551.30;1780957;78;21127;-64
2021/03/02 09:06:59;;;;;;;7.90;6.42;;;;;;;11.60;64.02;100554.61;1815989;77;21083;-68
2021/03/02 09:09:28;;;;;;;9.15;7.78;;;;;;;11.59;64.04;100556.12;1814498;77;21099;-63
2021/03/02 09:11:57;;;;;;;7.35;6.28;;;;;;;11.58;64.13;100563.75;1789887;78;21758;-69
2021/03/02 09:14:34;;;;;;;8.93;6.40;;;;;;;11.63;64.05;100560.14;1811891;77;21227;-68
2021/03/02 09:17:06;;;;;;;7.45;6.20;;;;;;;11.69;63.87;100547.53;1798254;77;21108;-67
2021/03/02 09:19:41;;;;;;;9.73;6.75;;;;;;;11.67;63.91;100543.37;1795830;77;21153;-67
2021/03/02 09:22:20;;;;;;;10.20;7.35;;;;;;;11.64;63.97;100545.82;1808568;77;21135;-66
2021/03/02 09:24:56;;;;;;;8.33;6.62;;;;;;;11.60;63.99;100541.30;1774782;79;21367;-63
2021/03/02 09:27:33;;;;;;;8.38;7.15;;;;;;;11.59;64.10;100536.16;1779298;79;21139;-65
2021/03/02 09:30:01;;;;;;;8.55;6.60;;;;;;;11.59;64.07;100527.67;1807886;78;21135;-64
2021/03/02 09:32:30;;;;;;;7.55;6.37;;;;;;;11.71;63.92;100532.74;1773617;79;21131;-65
2021/03/02 09:35:00;;;;;;;11.22;7.15;;;;;;;11.70;63.84;100523.07;1807166;78;21143;-65
2021/03/02 09:37:28;;;;;;;8.20;6.65;;;;;;;11.67;63.94;100536.20;1794130;78;22495;-61
2021/03/02 09:40:11;;;;;;;9.40;6.45;;;;;;;11.66;63.88;100417.92;1810358;77;21206;-60
2021/03/02 09:42:41;;;;;;;14.45;8.53;;;;;;;11.69;68.67;100410.97;1804173;77;21109;-61
2021/03/02 09:45:16;;;;;;;10.78;8.25;;;;;;;11.98;72.05;100426.09;1794599;78;21135;-71
2021/03/02 09:47:46;;;;;;;11.28;8.33;;;;;;;12.40;72.63;100500.34;1808140;78;21161;-69
2021/03/02 09:50:17;;;;;;;11.35;8.58;;;;;;;12.66;70.59;100502.89;1786866;79;21292;-66
2021/03/02 09:52:47;;;;;;;12.37;8.85;;;;;;;12.76;68.71;100504.08;1817207;78;21171;-67
2021/03/02 09:55:26;;;;;;;14.35;9.98;;;;;;;12.79;67.49;100507.27;1789223;78;21140;-68
2021/03/02 09:58:18;;;;;;;12.98;9.28;;;;;;;12.80;66.78;100506.75;1800821;78;21123;-69
2021/03/02 10:00:54;;;;;;;13.78;10.15;;;;;;;12.78;66.01;100503.42;1808543;78;21166;-69
2021/03/02 10:03:36;;;;;;;13.85;9.85;;;;;;;12.74;65.30;100496.23;1792180;78;21354;-69
2021/03/02 10:06:06;;;;;;;15.55;11.70;;;;;;;12.79;64.50;100485.10;1795618;77;21190;-73
2021/03/02 10:08:43;;;;;;;14.10;10.78;;;;;;;12.74;63.90;100485.58;1788420;78;21228;-71
2021/03/02 10:11:16;;;;;;;13.35;10.82;;;;;;;12.68;63.46;100476.91;1786716;79;21052;-69
2021/03/02 10:13:54;;;;;;;16.80;11.22;;;;;;;12.61;63.01;100475.05;1787002;79;21179;-68
2021/03/02 10:16:30;;;;;;;15.35;11.65;;;;;;;12.53;62.59;100472.70;1806333;78;21369;-68
2021/03/02 10:19:07;;;;;;;17.00;12.75;;;;;;;12.46;62.20;100465.52;1799437;78;22568;-68
2021/03/02 10:21:43;;;;;;;14.68;12.37;;;;;;;12.40;61.87;100448.38;1785400;79;21524;-70
2021/03/02 10:24:26;;;;;;;16.23;12.47;;;;;;;12.33;61.45;100444.18;1779418;79;21119;-70
2021/03/02 10:26:56;;;;;;;18.17;12.78;;;;;;;12.26;61.15;100433.00;1783038;79;21662;-69
2021/03/02 10:29:24;;;;;;;17.98;12.98;;;;;;;12.19;60.78;100419.52;1767900;79;21190;-70
2021/03/02 10:31:51;;;;;;;15.72;12.15;;;;;;;12.13;60.57;100427.65;1768435;79;21218;-69
2021/03/02 10:34:19;;;;;;;15.80;12.58;;;;;;;12.09;60.35;100421.45;1774444;79;21127;-68
2021/03/02 10:36:54;;;;;;;18.32;13.20;;;;;;;12.05;60.09;100415.61;1796298;79;21172;-68
2021/03/02 10:39:21;;;;;;;16.67;12.68;;;;;;;12.00;59.90;100411.29;1777053;79;21167;-67
2021/03/02 10:41:49;;;;;;;16.73;14.20;;;;;;;11.96;59.66;100422.75;1767297;79;21416;-67
2021/03/02 10:44:17;;;;;;;18.25;13.22;;;;;;;11.92;59.41;100405.44;1761259;79;21218;-69
2021/03/02 10:46:44;;;;;;;19.15;14.53;;;;;;;11.88;59.13;100408.05;1784083;79;21156;-69
2021/03/02 10:49:13;;;;;;;19.10;13.10;;;;;;;11.86;58.91;100408.72;1772023;78;21167;-69
2021/03/02 10:51:41;;;;;;;20.08;14.38;;;;;;;11.83;58.74;100392.22;1796347;77;21104;-67
2021/03/02 10:54:10;;;;;;;17.45;12.75;;;;;;;11.80;58.58;100389.36;1812759;78;21373;-67
2021/03/02 10:56:37;;;;;;;19.57;13.03;;;;;;;11.77;58.42;100398.51;1808361;78;21232;-71
2021/03/02 10:59:06;;;;;;;18.42;13.80;;;;;;;11.74;58.27;100398.84;1802959;77;21158;-70
2021/03/02 11:01:33;;;;;;;19.37;13.80;;;;;;;11.71;58.11;100395.16;1801334;78;21961;-68
2021/03/02 11:04:02;;;;;;;17.73;13.30;;;;;;;11.70;57.97;100393.98;1819661;78;21168;-68
2021/03/02 11:06:31;;;;;;;18.20;13.40;;;;;;;11.68;57.88;100429.24;1794623;78;21979;-68
2021/03/02 11:09:01;;;;;;;17.60;13.10;;;;;;;11.66;57.98;100428.57;1818671;78;21130;-67
2021/03/02 11:11:29;;;;;;;18.27;14.23;;;;;;;11.64;58.08;100421.23;1789149;79;21151;-69
2021/03/02 11:13:56;;;;;;;17.30;13.20;;;;;;;11.61;58.13;100415.25;1796066;78;21136;-65
2021/03/02 11:16:24;;;;;;;19.23;14.20;;;;;;;11.61;58.25;100416.58;1796387;77;21127;-68
2021/03/02 11:18:57;;;;;;;19.25;14.80;;;;;;;11.60;58.28;100406.91;1821130;78;21195;-67
2021/03/02 11:21:25;;;;;;;17.80;13.72;;;;;;;11.59;58.34;100403.09;1801653;78;21206;-68
2021/03/02 11:23:53;;;;;;;17.85;13.53;;;;;;;11.58;58.42;100397.42;1798078;78;21167;-70
2021/03/02 11:26:20;;;;;;;17.92;13.30;;;;;;;11.58;58.45;100386.78;1800358;78;21121;-69
2021/03/02 11:28:47;;;;;;;19.95;14.58;;;;;;;11.58;58.49;100396.09;1794299;78;21151;-69
2021/03/02 11:31:15;;;;;;;18.15;14.05;;;;;;;11.57;58.52;100389.09;1804340;78;21379;-68
2021/03/02 11:33:42;;;;;;;19.52;14.98;;;;;;;11.55;58.55;100395.06;1805056;77;21127;-68
2021/03/02 11:36:11;;;;;;;19.65;13.30;;;;;;;11.55;58.59;100385.28;1803491;78;21030;-69
2021/03/02 11:38:39;;;;;;;20.55;15.40;;;;;;;11.55;58.59;100388.41;1815928;78;21603;-67
2021/03/02 11:41:06;;;;;;;20.25;14.75;;;;;;;11.54;58.62;100386.26;1807491;77;21147;-69
2021/03/02 11:43:35;;;;;;;17.82;13.28;;;;;;;11.54;58.65;100375.61;1803700;78;21211;-72